sensor_id;sensor_type;location;lat;lon;timestamp;P1;durP1;ratioP1;P2;durP2;ratioP2
12135;SDS011;6131;56.420;15.548;2023-09-12T00:01:45;12.45;;;8.55;;
12135;SDS011;6131;56.420;15.548;2023-09-12T00:04:11;11.93;;;8.60;;
12135;SDS011;6131;56.420;15.548;2023-09-12T00:06:39;10.55;;;8.57;;
12135;SDS011;6131;56.420;15.548;2023-09-12T00:09:05;10.63;;;7.60;;
12135;SDS011;6131;56.420;15.548;2023-09-12T00:11:31;9.77;;;8.77;;
12135;SDS011;6131;56.420;15.548;2023-09-12T00:13:57;10.77;;;8.50;;
12135;SDS011;6131;56.420;15.548;2023-09-12T00:16:24;11.17;;;9.13;;
12135;SDS011;6131;56.420;15.548;2023-09-12T00:18:51;12.35;;;9.05;;
12135;SDS011;6131;56.420;15.548;2023-09-12T00:21:17;10.60;;;8.82;;
12135;SDS011;6131;56.420;15.548;2023-09-12T00:23:43;11.77;;;9.32;;
12135;SDS011;6131;56.420;15.548;2023-09-12T00:26:09;13.00;;;10.57;;
12135;SDS011;6131;56.420;15.548;2023-09-12T00:28:35;12.13;;;10.52;;
12135;SDS011;6131;56.420;15.548;2023-09-12T00:31:03;13.77;;;11.85;;
12135;SDS011;6131;56.420;15.548;2023-09-12T00:33:29;15.93;;;12.20;;
12135;SDS011;6131;56.420;15.548;2023-09-12T00:35:55;17.33;;;12.70;;
12135;SDS011;6131;56.420;15.548;2023-09-12T00:38:21;15.65;;;11.73;;
12135;SDS011;6131;56.420;15.548;2023-09-12T00:40:47;18.17;;;13.10;;
12135;SDS011;6131;56.420;15.548;2023-09-12T00:43:13;19.43;;;14.03;;
12135;SDS011;6131;56.420;15.548;2023-09-12T00:45:39;19.10;;;14.10;;
12135;SDS011;6131;56.420;15.548;2023-09-12T00:48:05;18.97;;;14.37;;
12135;SDS011;6131;56.420;15.548;2023-09-12T00:50:32;23.60;;;16.67;;
12135;SDS011;6131;56.420;15.548;2023-09-12T00:52:58;23.50;;;17.25;;
12135;SDS011;6131;56.420;15.548;2023-09-12T00:55:25;23.90;;;17.43;;
12135;SDS011;6131;56.420;15.548;2023-09-12T00:57:51;26.25;;;18.52;;
12135;SDS011;6131;56.420;15.548;2023-09-12T01:00:18;27.85;;;20.23;;
12135;SDS011;6131;56.420;15.548;2023-09-12T01:02:45;26.27;;;18.80;;
12135;SDS011;6131;56.420;15.548;2023-09-12T01:05:12;30.50;;;21.77;;
12135;SDS011;6131;56.420;15.548;2023-09-12T01:07:39;35.08;;;21.63;;
12135;SDS011;6131;56.420;15.548;2023-09-12T01:10:05;32.20;;;21.80;;
12135;SDS011;6131;56.420;15.548;2023-09-12T01:12:32;30.57;;;21.00;;
12135;SDS011;6131;56.420;15.548;2023-09-12T01:14:58;33.57;;;22.37;;
12135;SDS011;6131;56.420;15.548;2023-09-12T01:17:24;29.73;;;20.83;;
12135;SDS011;6131;56.420;15.548;2023-09-12T01:19:50;32.42;;;22.45;;
12135;SDS011;6131;56.420;15.548;2023-09-12T01:27:46;31.77;;;21.90;;
12135;SDS011;6131;56.420;15.548;2023-09-12T01:30:12;32.33;;;22.23;;
12135;SDS011;6131;56.420;15.548;2023-09-12T01:32:42;33.30;;;22.73;;
12135;SDS011;6131;56.420;15.548;2023-09-12T01:35:09;30.85;;;22.80;;
12135;SDS011;6131;56.420;15.548;2023-09-12T01:37:35;29.60;;;22.80;;
12135;SDS011;6131;56.420;15.548;2023-09-12T01:40:01;29.80;;;21.43;;
12135;SDS011;6131;56.420;15.548;2023-09-12T01:42:29;33.42;;;22.88;;
12135;SDS011;6131;56.420;15.548;2023-09-12T01:44:57;34.37;;;23.73;;
12135;SDS011;6131;56.420;15.548;2023-09-12T01:47:24;31.23;;;21.48;;
12135;SDS011;6131;56.420;15.548;2023-09-12T01:49:51;26.53;;;19.13;;
12135;SDS011;6131;56.420;15.548;2023-09-12T01:52:18;28.03;;;18.77;;
12135;SDS011;6131;56.420;15.548;2023-09-12T01:54:44;25.58;;;16.92;;
12135;SDS011;6131;56.420;15.548;2023-09-12T01:57:11;28.23;;;19.43;;
12135;SDS011;6131;56.420;15.548;2023-09-12T01:59:37;25.17;;;17.87;;
12135;SDS011;6131;56.420;15.548;2023-09-12T02:02:03;26.63;;;18.63;;
12135;SDS011;6131;56.420;15.548;2023-09-12T02:04:29;25.77;;;18.37;;
12135;SDS011;6131;56.420;15.548;2023-09-12T02:06:56;21.73;;;16.17;;
12135;SDS011;6131;56.420;15.548;2023-09-12T02:09:23;22.42;;;15.15;;
12135;SDS011;6131;56.420;15.548;2023-09-12T02:11:50;15.50;;;13.13;;
12135;SDS011;6131;56.420;15.548;2023-09-12T02:14:16;16.20;;;12.90;;
12135;SDS011;6131;56.420;15.548;2023-09-12T02:16:45;16.03;;;13.20;;
12135;SDS011;6131;56.420;15.548;2023-09-12T02:19:11;17.30;;;13.30;;
12135;SDS011;6131;56.420;15.548;2023-09-12T02:21:37;16.63;;;12.90;;
12135;SDS011;6131;56.420;15.548;2023-09-12T02:24:03;15.57;;;12.17;;
12135;SDS011;6131;56.420;15.548;2023-09-12T02:26:29;17.30;;;12.83;;
12135;SDS011;6131;56.420;15.548;2023-09-12T02:28:56;14.83;;;12.20;;
12135;SDS011;6131;56.420;15.548;2023-09-12T02:31:22;14.67;;;12.43;;
12135;SDS011;6131;56.420;15.548;2023-09-12T02:33:48;16.03;;;12.80;;
12135;SDS011;6131;56.420;15.548;2023-09-12T02:36:14;14.73;;;12.30;;
12135;SDS011;6131;56.420;15.548;2023-09-12T02:38:40;16.27;;;12.70;;
12135;SDS011;6131;56.420;15.548;2023-09-12T02:41:06;16.93;;;13.37;;
12135;SDS011;6131;56.420;15.548;2023-09-12T02:43:32;15.30;;;12.90;;
12135;SDS011;6131;56.420;15.548;2023-09-12T02:45:58;15.43;;;12.87;;
12135;SDS011;6131;56.420;15.548;2023-09-12T02:48:24;15.37;;;13.20;;
12135;SDS011;6131;56.420;15.548;2023-09-12T02:50:50;17.23;;;13.30;;
12135;SDS011;6131;56.420;15.548;2023-09-12T02:53:16;16.50;;;12.77;;
12135;SDS011;6131;56.420;15.548;2023-09-12T02:55:42;15.20;;;13.00;;
12135;SDS011;6131;56.420;15.548;2023-09-12T02:58:08;15.70;;;13.30;;
12135;SDS011;6131;56.420;15.548;2023-09-12T03:00:38;16.93;;;14.10;;
12135;SDS011;6131;56.420;15.548;2023-09-12T03:03:05;17.13;;;13.33;;
12135;SDS011;6131;56.420;15.548;2023-09-12T03:05:31;16.93;;;13.57;;
12135;SDS011;6131;56.420;15.548;2023-09-12T03:07:57;17.33;;;13.50;;
12135;SDS011;6131;56.420;15.548;2023-09-12T03:10:23;18.20;;;14.47;;
12135;SDS011;6131;56.420;15.548;2023-09-12T03:12:49;18.40;;;13.37;;
12135;SDS011;6131;56.420;15.548;2023-09-12T03:15:15;18.00;;;13.57;;
12135;SDS011;6131;56.420;15.548;2023-09-12T03:17:41;18.87;;;14.47;;
12135;SDS011;6131;56.420;15.548;2023-09-12T03:20:07;19.03;;;14.17;;
12135;SDS011;6131;56.420;15.548;2023-09-12T03:22:34;17.03;;;13.63;;
12135;SDS011;6131;56.420;15.548;2023-09-12T03:25:03;16.07;;;13.70;;
12135;SDS011;6131;56.420;15.548;2023-09-12T03:27:29;16.17;;;12.97;;
12135;SDS011;6131;56.420;15.548;2023-09-12T03:29:55;18.60;;;15.23;;
12135;SDS011;6131;56.420;15.548;2023-09-12T03:32:21;20.27;;;14.93;;
12135;SDS011;6131;56.420;15.548;2023-09-12T03:34:47;19.13;;;15.20;;
12135;SDS011;6131;56.420;15.548;2023-09-12T03:37:13;20.20;;;15.43;;
12135;SDS011;6131;56.420;15.548;2023-09-12T03:39:39;20.03;;;15.17;;
12135;SDS011;6131;56.420;15.548;2023-09-12T03:42:05;19.73;;;14.93;;
12135;SDS011;6131;56.420;15.548;2023-09-12T03:44:31;20.30;;;15.83;;
12135;SDS011;6131;56.420;15.548;2023-09-12T03:46:57;20.00;;;15.20;;
12135;SDS011;6131;56.420;15.548;2023-09-12T03:49:23;20.23;;;16.00;;
12135;SDS011;6131;56.420;15.548;2023-09-12T03:51:49;21.80;;;15.67;;
12135;SDS011;6131;56.420;15.548;2023-09-12T03:54:15;21.27;;;16.37;;
12135;SDS011;6131;56.420;15.548;2023-09-12T03:56:41;26.10;;;16.50;;
12135;SDS011;6131;56.420;15.548;2023-09-12T03:59:07;22.80;;;15.83;;
12135;SDS011;6131;56.420;15.548;2023-09-12T04:01:33;22.70;;;15.00;;
12135;SDS011;6131;56.420;15.548;2023-09-12T04:03:59;23.47;;;15.93;;
12135;SDS011;6131;56.420;15.548;2023-09-12T04:06:25;21.03;;;15.20;;
12135;SDS011;6131;56.420;15.548;2023-09-12T04:08:51;22.73;;;16.53;;
12135;SDS011;6131;56.420;15.548;2023-09-12T04:11:17;26.40;;;16.57;;
12135;SDS011;6131;56.420;15.548;2023-09-12T04:13:43;24.10;;;16.30;;
12135;SDS011;6131;56.420;15.548;2023-09-12T04:16:09;24.07;;;16.97;;
12135;SDS011;6131;56.420;15.548;2023-09-12T04:18:35;26.00;;;17.13;;
12135;SDS011;6131;56.420;15.548;2023-09-12T04:21:01;25.80;;;17.53;;
12135;SDS011;6131;56.420;15.548;2023-09-12T04:23:28;27.30;;;17.50;;
12135;SDS011;6131;56.420;15.548;2023-09-12T04:25:54;31.77;;;18.47;;
12135;SDS011;6131;56.420;15.548;2023-09-12T04:28:20;30.53;;;18.13;;
12135;SDS011;6131;56.420;15.548;2023-09-12T04:30:46;28.50;;;18.13;;
12135;SDS011;6131;56.420;15.548;2023-09-12T04:33:12;33.20;;;19.07;;
12135;SDS011;6131;56.420;15.548;2023-09-12T04:35:38;31.70;;;19.17;;
12135;SDS011;6131;56.420;15.548;2023-09-12T04:38:04;37.87;;;18.80;;
12135;SDS011;6131;56.420;15.548;2023-09-12T04:40:30;32.83;;;19.83;;
12135;SDS011;6131;56.420;15.548;2023-09-12T04:42:56;28.63;;;18.17;;
12135;SDS011;6131;56.420;15.548;2023-09-12T04:45:22;29.60;;;17.13;;
12135;SDS011;6131;56.420;15.548;2023-09-12T04:47:48;29.23;;;18.13;;
12135;SDS011;6131;56.420;15.548;2023-09-12T04:50:14;33.87;;;18.40;;
12135;SDS011;6131;56.420;15.548;2023-09-12T04:52:40;31.80;;;18.20;;
12135;SDS011;6131;56.420;15.548;2023-09-12T04:55:06;31.80;;;18.57;;
12135;SDS011;6131;56.420;15.548;2023-09-12T04:57:32;30.23;;;18.80;;
12135;SDS011;6131;56.420;15.548;2023-09-12T04:59:58;30.93;;;19.00;;
12135;SDS011;6131;56.420;15.548;2023-09-12T05:02:24;34.63;;;17.20;;
12135;SDS011;6131;56.420;15.548;2023-09-12T05:04:51;27.17;;;17.07;;
12135;SDS011;6131;56.420;15.548;2023-09-12T05:07:17;33.20;;;18.17;;
12135;SDS011;6131;56.420;15.548;2023-09-12T05:09:43;32.53;;;18.30;;
12135;SDS011;6131;56.420;15.548;2023-09-12T05:12:09;31.33;;;18.30;;
12135;SDS011;6131;56.420;15.548;2023-09-12T05:14:35;31.70;;;16.87;;
12135;SDS011;6131;56.420;15.548;2023-09-12T05:17:01;31.33;;;18.03;;
12135;SDS011;6131;56.420;15.548;2023-09-12T05:19:29;28.80;;;17.57;;
12135;SDS011;6131;56.420;15.548;2023-09-12T05:21:55;28.73;;;17.73;;
12135;SDS011;6131;56.420;15.548;2023-09-12T05:24:21;28.90;;;17.40;;
12135;SDS011;6131;56.420;15.548;2023-09-12T05:26:47;30.53;;;17.17;;
12135;SDS011;6131;56.420;15.548;2023-09-12T05:29:14;28.67;;;16.83;;
12135;SDS011;6131;56.420;15.548;2023-09-12T05:31:40;28.20;;;16.97;;
12135;SDS011;6131;56.420;15.548;2023-09-12T05:34:06;27.93;;;16.87;;
12135;SDS011;6131;56.420;15.548;2023-09-12T05:36:32;27.80;;;17.13;;
12135;SDS011;6131;56.420;15.548;2023-09-12T05:38:58;28.60;;;16.37;;
12135;SDS011;6131;56.420;15.548;2023-09-12T05:41:24;29.27;;;16.50;;
12135;SDS011;6131;56.420;15.548;2023-09-12T05:43:50;27.63;;;16.97;;
12135;SDS011;6131;56.420;15.548;2023-09-12T05:46:16;34.70;;;19.37;;
12135;SDS011;6131;56.420;15.548;2023-09-12T05:48:42;40.93;;;19.40;;
12135;SDS011;6131;56.420;15.548;2023-09-12T05:51:08;31.77;;;18.97;;
12135;SDS011;6131;56.420;15.548;2023-09-12T05:53:34;32.73;;;18.33;;
12135;SDS011;6131;56.420;15.548;2023-09-12T05:56:00;33.80;;;19.80;;
12135;SDS011;6131;56.420;15.548;2023-09-12T05:58:27;36.93;;;18.87;;
12135;SDS011;6131;56.420;15.548;2023-09-12T06:00:53;30.17;;;18.47;;
12135;SDS011;6131;56.420;15.548;2023-09-12T06:03:19;37.13;;;19.83;;
12135;SDS011;6131;56.420;15.548;2023-09-12T06:05:45;30.53;;;19.10;;
12135;SDS011;6131;56.420;15.548;2023-09-12T06:08:11;29.57;;;17.13;;
12135;SDS011;6131;56.420;15.548;2023-09-12T06:10:37;27.30;;;17.13;;
12135;SDS011;6131;56.420;15.548;2023-09-12T06:13:03;25.38;;;16.20;;
12135;SDS011;6131;56.420;15.548;2023-09-12T06:15:29;26.13;;;16.25;;
12135;SDS011;6131;56.420;15.548;2023-09-12T06:17:55;27.63;;;16.63;;
12135;SDS011;6131;56.420;15.548;2023-09-12T06:20:21;26.97;;;16.97;;
12135;SDS011;6131;56.420;15.548;2023-09-12T06:22:47;27.58;;;16.83;;
12135;SDS011;6131;56.420;15.548;2023-09-12T06:25:14;29.23;;;17.47;;
12135;SDS011;6131;56.420;15.548;2023-09-12T06:27:40;26.93;;;17.17;;
12135;SDS011;6131;56.420;15.548;2023-09-12T06:30:06;25.37;;;16.23;;
12135;SDS011;6131;56.420;15.548;2023-09-12T06:32:32;25.23;;;16.53;;
12135;SDS011;6131;56.420;15.548;2023-09-12T06:34:58;24.17;;;15.77;;
12135;SDS011;6131;56.420;15.548;2023-09-12T06:37:24;23.17;;;14.53;;
12135;SDS011;6131;56.420;15.548;2023-09-12T06:39:50;21.90;;;14.77;;
12135;SDS011;6131;56.420;15.548;2023-09-12T06:42:16;21.38;;;15.00;;
12135;SDS011;6131;56.420;15.548;2023-09-12T06:44:42;20.50;;;14.70;;
12135;SDS011;6131;56.420;15.548;2023-09-12T06:47:08;19.55;;;13.80;;
12135;SDS011;6131;56.420;15.548;2023-09-12T06:49:35;18.52;;;13.32;;
12135;SDS011;6131;56.420;15.548;2023-09-12T06:52:02;18.13;;;13.85;;
12135;SDS011;6131;56.420;15.548;2023-09-12T06:54:28;18.27;;;13.18;;
12135;SDS011;6131;56.420;15.548;2023-09-12T06:56:54;17.60;;;13.98;;
12135;SDS011;6131;56.420;15.548;2023-09-12T06:59:20;19.63;;;14.30;;
12135;SDS011;6131;56.420;15.548;2023-09-12T07:01:46;17.63;;;13.82;;
12135;SDS011;6131;56.420;15.548;2023-09-12T07:04:13;18.95;;;13.60;;
12135;SDS011;6131;56.420;15.548;2023-09-12T07:06:39;17.13;;;13.95;;
12135;SDS011;6131;56.420;15.548;2023-09-12T07:09:05;16.65;;;12.90;;
12135;SDS011;6131;56.420;15.548;2023-09-12T07:11:31;18.27;;;13.90;;
12135;SDS011;6131;56.420;15.548;2023-09-12T07:13:57;18.50;;;14.40;;
12135;SDS011;6131;56.420;15.548;2023-09-12T07:16:23;17.60;;;13.55;;
12135;SDS011;6131;56.420;15.548;2023-09-12T07:18:49;17.38;;;14.15;;
12135;SDS011;6131;56.420;15.548;2023-09-12T07:21:15;16.40;;;13.52;;
12135;SDS011;6131;56.420;15.548;2023-09-12T07:23:41;17.33;;;12.50;;
12135;SDS011;6131;56.420;15.548;2023-09-12T07:26:11;16.85;;;13.70;;
12135;SDS011;6131;56.420;15.548;2023-09-12T07:28:37;15.45;;;12.98;;
12135;SDS011;6131;56.420;15.548;2023-09-12T07:31:03;14.05;;;12.10;;
12135;SDS011;6131;56.420;15.548;2023-09-12T07:33:29;12.95;;;11.40;;
12135;SDS011;6131;56.420;15.548;2023-09-12T07:35:55;15.55;;;11.27;;
12135;SDS011;6131;56.420;15.548;2023-09-12T07:38:21;13.18;;;11.77;;
12135;SDS011;6131;56.420;15.548;2023-09-12T07:40:48;12.63;;;10.82;;
12135;SDS011;6131;56.420;15.548;2023-09-12T07:43:15;13.10;;;11.73;;
12135;SDS011;6131;56.420;15.548;2023-09-12T07:45:41;14.10;;;12.07;;
12135;SDS011;6131;56.420;15.548;2023-09-12T07:48:07;12.40;;;11.18;;
12135;SDS011;6131;56.420;15.548;2023-09-12T07:50:35;14.43;;;12.57;;
12135;SDS011;6131;56.420;15.548;2023-09-12T07:53:03;16.40;;;13.95;;
12135;SDS011;6131;56.420;15.548;2023-09-12T07:55:29;19.00;;;13.75;;
12135;SDS011;6131;56.420;15.548;2023-09-12T07:58:00;18.10;;;14.63;;
12135;SDS011;6131;56.420;15.548;2023-09-12T08:00:26;16.00;;;13.15;;
12135;SDS011;6131;56.420;15.548;2023-09-12T08:02:52;16.13;;;13.60;;
12135;SDS011;6131;56.420;15.548;2023-09-12T08:05:18;17.85;;;13.90;;
12135;SDS011;6131;56.420;15.548;2023-09-12T08:07:44;15.80;;;13.68;;
12135;SDS011;6131;56.420;15.548;2023-09-12T08:10:10;25.77;;;13.88;;
12135;SDS011;6131;56.420;15.548;2023-09-12T08:12:36;19.38;;;14.40;;
12135;SDS011;6131;56.420;15.548;2023-09-12T08:15:06;20.02;;;14.98;;
12135;SDS011;6131;56.420;15.548;2023-09-12T08:17:33;17.38;;;15.27;;
12135;SDS011;6131;56.420;15.548;2023-09-12T08:19:59;18.67;;;14.65;;
12135;SDS011;6131;56.420;15.548;2023-09-12T08:22:25;20.88;;;15.82;;
12135;SDS011;6131;56.420;15.548;2023-09-12T08:24:51;17.65;;;14.75;;
12135;SDS011;6131;56.420;15.548;2023-09-12T08:27:17;19.50;;;16.27;;
12135;SDS011;6131;56.420;15.548;2023-09-12T08:29:43;19.13;;;15.75;;
12135;SDS011;6131;56.420;15.548;2023-09-12T08:32:11;19.92;;;16.67;;
12135;SDS011;6131;56.420;15.548;2023-09-12T08:34:37;18.92;;;16.10;;
12135;SDS011;6131;56.420;15.548;2023-09-12T08:37:03;22.13;;;16.88;;
12135;SDS011;6131;56.420;15.548;2023-09-12T08:39:39;20.83;;;17.63;;
12135;SDS011;6131;56.420;15.548;2023-09-12T08:42:06;24.85;;;18.05;;
12135;SDS011;6131;56.420;15.548;2023-09-12T08:44:32;21.85;;;18.80;;
12135;SDS011;6131;56.420;15.548;2023-09-12T08:46:58;25.63;;;19.13;;
12135;SDS011;6131;56.420;15.548;2023-09-12T08:49:25;25.65;;;18.15;;
12135;SDS011;6131;56.420;15.548;2023-09-12T08:51:52;23.25;;;17.27;;
12135;SDS011;6131;56.420;15.548;2023-09-12T08:54:18;26.38;;;17.85;;
12135;SDS011;6131;56.420;15.548;2023-09-12T08:56:44;24.42;;;18.83;;
12135;SDS011;6131;56.420;15.548;2023-09-12T08:59:10;25.40;;;19.25;;
12135;SDS011;6131;56.420;15.548;2023-09-12T09:01:36;24.10;;;18.90;;
12135;SDS011;6131;56.420;15.548;2023-09-12T09:04:02;22.67;;;18.30;;
12135;SDS011;6131;56.420;15.548;2023-09-12T09:06:29;22.17;;;18.52;;
12135;SDS011;6131;56.420;15.548;2023-09-12T09:09:02;20.75;;;17.20;;
12135;SDS011;6131;56.420;15.548;2023-09-12T09:11:30;20.48;;;16.20;;
12135;SDS011;6131;56.420;15.548;2023-09-12T09:13:56;23.15;;;18.55;;
12135;SDS011;6131;56.420;15.548;2023-09-12T09:16:22;26.67;;;20.08;;
12135;SDS011;6131;56.420;15.548;2023-09-12T09:18:52;25.50;;;19.63;;
12135;SDS011;6131;56.420;15.548;2023-09-12T09:21:18;26.50;;;20.15;;
12135;SDS011;6131;56.420;15.548;2023-09-12T09:23:45;24.52;;;19.10;;
12135;SDS011;6131;56.420;15.548;2023-09-12T09:26:12;27.15;;;20.02;;
12135;SDS011;6131;56.420;15.548;2023-09-12T09:28:38;28.05;;;20.75;;
12135;SDS011;6131;56.420;15.548;2023-09-12T09:31:04;29.50;;;20.50;;
12135;SDS011;6131;56.420;15.548;2023-09-12T09:33:37;23.65;;;18.90;;
12135;SDS011;6131;56.420;15.548;2023-09-12T09:36:04;28.38;;;20.52;;
12135;SDS011;6131;56.420;15.548;2023-09-12T09:38:30;25.85;;;20.50;;
12135;SDS011;6131;56.420;15.548;2023-09-12T09:40:56;31.45;;;20.92;;
12135;SDS011;6131;56.420;15.548;2023-09-12T09:43:22;27.48;;;21.25;;
12135;SDS011;6131;56.420;15.548;2023-09-12T09:45:50;24.70;;;19.88;;
12135;SDS011;6131;56.420;15.548;2023-09-12T09:50:45;25.98;;;19.48;;
12135;SDS011;6131;56.420;15.548;2023-09-12T09:53:11;25.55;;;20.95;;
12135;SDS011;6131;56.420;15.548;2023-09-12T09:55:37;27.77;;;20.67;;
12135;SDS011;6131;56.420;15.548;2023-09-12T09:58:06;24.00;;;19.60;;
12135;SDS011;6131;56.420;15.548;2023-09-12T10:00:36;26.80;;;20.83;;
12135;SDS011;6131;56.420;15.548;2023-09-12T10:03:05;23.38;;;18.80;;
12135;SDS011;6131;56.420;15.548;2023-09-12T10:05:32;23.80;;;19.17;;
12135;SDS011;6131;56.420;15.548;2023-09-12T10:07:58;21.55;;;18.52;;
12135;SDS011;6131;56.420;15.548;2023-09-12T10:10:25;20.52;;;17.67;;
12135;SDS011;6131;56.420;15.548;2023-09-12T10:12:55;22.02;;;18.30;;
12135;SDS011;6131;56.420;15.548;2023-09-12T10:15:21;22.55;;;17.95;;
12135;SDS011;6131;56.420;15.548;2023-09-12T10:17:55;24.45;;;19.15;;
12135;SDS011;6131;56.420;15.548;2023-09-12T10:20:23;23.17;;;18.00;;
12135;SDS011;6131;56.420;15.548;2023-09-12T10:22:52;26.30;;;18.92;;
12135;SDS011;6131;56.420;15.548;2023-09-12T10:25:22;23.95;;;19.17;;
12135;SDS011;6131;56.420;15.548;2023-09-12T10:27:49;24.70;;;19.20;;
12135;SDS011;6131;56.420;15.548;2023-09-12T10:30:15;24.88;;;19.73;;
12135;SDS011;6131;56.420;15.548;2023-09-12T10:32:43;25.17;;;20.70;;
12135;SDS011;6131;56.420;15.548;2023-09-12T10:35:11;26.13;;;21.95;;
12135;SDS011;6131;56.420;15.548;2023-09-12T10:37:37;27.60;;;19.92;;
12135;SDS011;6131;56.420;15.548;2023-09-12T10:40:05;26.48;;;20.95;;
12135;SDS011;6131;56.420;15.548;2023-09-12T10:42:33;26.65;;;20.80;;
12135;SDS011;6131;56.420;15.548;2023-09-12T10:45:00;27.60;;;20.90;;
12135;SDS011;6131;56.420;15.548;2023-09-12T10:47:28;22.17;;;18.45;;
12135;SDS011;6131;56.420;15.548;2023-09-12T10:49:55;19.40;;;17.27;;
12135;SDS011;6131;56.420;15.548;2023-09-12T10:52:25;19.63;;;17.00;;
12135;SDS011;6131;56.420;15.548;2023-09-12T10:54:51;18.42;;;15.23;;
12135;SDS011;6131;56.420;15.548;2023-09-12T10:57:17;18.10;;;15.40;;
12135;SDS011;6131;56.420;15.548;2023-09-12T11:02:31;16.42;;;13.88;;
12135;SDS011;6131;56.420;15.548;2023-09-12T11:05:04;14.68;;;13.07;;
12135;SDS011;6131;56.420;15.548;2023-09-12T11:12:43;14.15;;;12.55;;
12135;SDS011;6131;56.420;15.548;2023-09-12T11:15:09;14.13;;;12.20;;
12135;SDS011;6131;56.420;15.548;2023-09-12T11:17:45;14.50;;;12.55;;
12135;SDS011;6131;56.420;15.548;2023-09-12T11:20:12;14.48;;;12.55;;
12135;SDS011;6131;56.420;15.548;2023-09-12T11:22:45;16.55;;;13.00;;
12135;SDS011;6131;56.420;15.548;2023-09-12T11:25:21;16.77;;;13.73;;
12135;SDS011;6131;56.420;15.548;2023-09-12T11:30:17;16.73;;;13.73;;
12135;SDS011;6131;56.420;15.548;2023-09-12T11:32:45;17.02;;;13.93;;
12135;SDS011;6131;56.420;15.548;2023-09-12T11:35:11;15.20;;;12.93;;
12135;SDS011;6131;56.420;15.548;2023-09-12T11:37:39;17.40;;;13.82;;
12135;SDS011;6131;56.420;15.548;2023-09-12T11:42:40;17.33;;;13.82;;
12135;SDS011;6131;56.420;15.548;2023-09-12T11:45:14;18.67;;;13.85;;
12135;SDS011;6131;56.420;15.548;2023-09-12T11:47:43;16.10;;;14.00;;
12135;SDS011;6131;56.420;15.548;2023-09-12T11:50:31;16.33;;;13.57;;
12135;SDS011;6131;56.420;15.548;2023-09-12T11:53:00;14.77;;;12.60;;
12135;SDS011;6131;56.420;15.548;2023-09-12T11:55:26;16.40;;;13.65;;
12135;SDS011;6131;56.420;15.548;2023-09-12T11:57:54;17.25;;;13.52;;
12135;SDS011;6131;56.420;15.548;2023-09-12T12:00:20;15.05;;;12.07;;
12135;SDS011;6131;56.420;15.548;2023-09-12T12:02:47;12.48;;;11.25;;
12135;SDS011;6131;56.420;15.548;2023-09-12T12:05:13;12.57;;;11.27;;
12135;SDS011;6131;56.420;15.548;2023-09-12T12:07:39;12.35;;;11.25;;
12135;SDS011;6131;56.420;15.548;2023-09-12T12:10:07;14.02;;;11.43;;
12135;SDS011;6131;56.420;15.548;2023-09-12T12:12:33;13.85;;;11.57;;
12135;SDS011;6131;56.420;15.548;2023-09-12T12:15:00;13.18;;;11.82;;
12135;SDS011;6131;56.420;15.548;2023-09-12T12:17:26;12.45;;;11.15;;
12135;SDS011;6131;56.420;15.548;2023-09-12T12:19:52;12.93;;;11.63;;
12135;SDS011;6131;56.420;15.548;2023-09-12T12:22:18;12.18;;;10.77;;
12135;SDS011;6131;56.420;15.548;2023-09-12T12:24:49;13.55;;;11.18;;
12135;SDS011;6131;56.420;15.548;2023-09-12T12:27:16;11.90;;;10.70;;
12135;SDS011;6131;56.420;15.548;2023-09-12T12:29:42;13.70;;;10.40;;
12135;SDS011;6131;56.420;15.548;2023-09-12T12:32:10;12.40;;;11.00;;
12135;SDS011;6131;56.420;15.548;2023-09-12T12:34:36;10.95;;;9.63;;
12135;SDS011;6131;56.420;15.548;2023-09-12T12:37:02;12.52;;;10.35;;
12135;SDS011;6131;56.420;15.548;2023-09-12T12:39:28;14.73;;;10.80;;
12135;SDS011;6131;56.420;15.548;2023-09-12T12:41:54;10.73;;;9.43;;
12135;SDS011;6131;56.420;15.548;2023-09-12T12:44:21;11.35;;;9.63;;
12135;SDS011;6131;56.420;15.548;2023-09-12T12:46:51;11.20;;;8.68;;
12135;SDS011;6131;56.420;15.548;2023-09-12T12:49:18;11.13;;;8.68;;
12135;SDS011;6131;56.420;15.548;2023-09-12T12:51:44;11.07;;;9.13;;
12135;SDS011;6131;56.420;15.548;2023-09-12T12:54:11;9.48;;;8.48;;
12135;SDS011;6131;56.420;15.548;2023-09-12T12:56:37;11.27;;;9.00;;
12135;SDS011;6131;56.420;15.548;2023-09-12T12:59:04;10.43;;;9.30;;
12135;SDS011;6131;56.420;15.548;2023-09-12T13:01:33;10.20;;;9.02;;
12135;SDS011;6131;56.420;15.548;2023-09-12T13:03:59;11.00;;;9.73;;
12135;SDS011;6131;56.420;15.548;2023-09-12T13:06:25;10.23;;;9.23;;
12135;SDS011;6131;56.420;15.548;2023-09-12T13:08:54;10.68;;;9.57;;
12135;SDS011;6131;56.420;15.548;2023-09-12T13:11:22;10.57;;;9.48;;
12135;SDS011;6131;56.420;15.548;2023-09-12T13:13:48;11.65;;;10.43;;
12135;SDS011;6131;56.420;15.548;2023-09-12T13:16:15;11.52;;;10.43;;
12135;SDS011;6131;56.420;15.548;2023-09-12T13:18:41;12.93;;;10.75;;
12135;SDS011;6131;56.420;15.548;2023-09-12T13:21:07;12.40;;;11.10;;
12135;SDS011;6131;56.420;15.548;2023-09-12T13:23:33;12.20;;;9.90;;
12135;SDS011;6131;56.420;15.548;2023-09-12T13:25:59;10.95;;;9.73;;
12135;SDS011;6131;56.420;15.548;2023-09-12T13:28:25;11.80;;;10.60;;
12135;SDS011;6131;56.420;15.548;2023-09-12T13:30:52;12.55;;;10.65;;
12135;SDS011;6131;56.420;15.548;2023-09-12T13:33:18;12.18;;;10.80;;
12135;SDS011;6131;56.420;15.548;2023-09-12T13:35:44;13.55;;;10.38;;
12135;SDS011;6131;56.420;15.548;2023-09-12T13:38:10;12.02;;;10.43;;
12135;SDS011;6131;56.420;15.548;2023-09-12T13:40:38;12.35;;;10.80;;
12135;SDS011;6131;56.420;15.548;2023-09-12T13:43:04;16.77;;;11.48;;
12135;SDS011;6131;56.420;15.548;2023-09-12T13:45:31;13.60;;;11.63;;
12135;SDS011;6131;56.420;15.548;2023-09-12T13:47:57;14.90;;;12.52;;
12135;SDS011;6131;56.420;15.548;2023-09-12T13:50:24;14.13;;;12.15;;
12135;SDS011;6131;56.420;15.548;2023-09-12T13:52:50;14.48;;;12.93;;
12135;SDS011;6131;56.420;15.548;2023-09-12T13:55:16;16.05;;;13.70;;
12135;SDS011;6131;56.420;15.548;2023-09-12T13:57:42;16.05;;;13.25;;
12135;SDS011;6131;56.420;15.548;2023-09-12T14:00:08;14.32;;;12.75;;
12135;SDS011;6131;56.420;15.548;2023-09-12T14:02:34;17.23;;;13.05;;
12135;SDS011;6131;56.420;15.548;2023-09-12T14:05:00;18.85;;;13.38;;
12135;SDS011;6131;56.420;15.548;2023-09-12T14:07:26;18.50;;;12.98;;
12135;SDS011;6131;56.420;15.548;2023-09-12T14:09:52;14.57;;;12.93;;
12135;SDS011;6131;56.420;15.548;2023-09-12T14:12:21;18.25;;;14.77;;
12135;SDS011;6131;56.420;15.548;2023-09-12T14:14:47;18.60;;;14.80;;
12135;SDS011;6131;56.420;15.548;2023-09-12T14:17:13;18.83;;;14.43;;
12135;SDS011;6131;56.420;15.548;2023-09-12T14:19:39;16.98;;;14.52;;
12135;SDS011;6131;56.420;15.548;2023-09-12T14:22:05;17.63;;;14.27;;
12135;SDS011;6131;56.420;15.548;2023-09-12T14:24:31;16.35;;;14.00;;
12135;SDS011;6131;56.420;15.548;2023-09-12T14:26:57;17.35;;;14.65;;
12135;SDS011;6131;56.420;15.548;2023-09-12T14:29:23;17.17;;;13.70;;
12135;SDS011;6131;56.420;15.548;2023-09-12T14:31:52;18.85;;;16.02;;
12135;SDS011;6131;56.420;15.548;2023-09-12T14:34:23;18.30;;;14.60;;
12135;SDS011;6131;56.420;15.548;2023-09-12T14:36:51;17.73;;;14.05;;
12135;SDS011;6131;56.420;15.548;2023-09-12T14:39:17;16.65;;;13.02;;
12135;SDS011;6131;56.420;15.548;2023-09-12T14:41:43;16.40;;;13.73;;